Time;durP1;ratioP1;P1;durP2;ratioP2;P2;SDS_P1;SDS_P2;PMS_P1;PMS_P2;Temp;Humidity;BMP_temperature;BMP_pressure;BME280_temperature;BME280_humidity;BME280_pressure;Samples;Min_cycle;Max_cycle;Signal;HPM_P1;HPM_P2
2023/11/25 00:00:52;;;;;;;5.88;2.65;;;;;;;;;;5840695;28;20065;-74
2023/11/25 00:03:43;;;;;;;4.60;3.00;;;;;;;;;;5840636;28;20060;-74
2023/11/25 00:06:33;;;;;;;11.10;2.38;;;;;;;;;;5839024;28;20038;-75
2023/11/25 00:09:24;;;;;;;7.68;3.00;;;;;;;;;;5839342;28;20046;-75
2023/11/25 00:12:15;;;;;;;2.95;2.58;;;;;;;;;;5840564;28;20053;-74
2023/11/25 00:15:07;;;;;;;4.10;2.20;;;;;;;;;;5838842;28;20048;-74
2023/11/25 00:17:58;;;;;;;11.55;2.08;;;;;;;;;;5855875;28;20054;-74
2023/11/25 00:20:48;;;;;;;8.57;3.40;;;;;;;;;;5855465;28;20046;-74
2023/11/25 00:23:39;;;;;;;3.78;3.03;;;;;;;;;;5838936;28;20049;-74
2023/11/25 00:26:30;;;;;;;9.98;2.72;;;;;;;;;;5822862;28;20041;-73
2023/11/25 00:29:21;;;;;;;7.40;2.63;;;;;;;;;;5838723;28;20089;-74
2023/11/25 00:32:11;;;;;;;3.22;2.05;;;;;;;;;;5840041;28;20108;-74
2023/11/25 00:35:06;;;;;;;13.23;3.30;;;;;;;;;;5838510;28;20053;-74
2023/11/25 00:37:57;;;;;;;6.28;3.25;;;;;;;;;;5840105;28;20049;-74
2023/11/25 00:40:49;;;;;;;4.18;2.22;;;;;;;;;;5838477;28;20049;-74
2023/11/25 00:43:40;;;;;;;3.35;2.35;;;;;;;;;;5840114;28;20046;-74
2023/11/25 00:46:30;;;;;;;3.00;2.13;;;;;;;;;;5839469;28;20407;-73
2023/11/25 00:49:21;;;;;;;4.43;2.53;;;;;;;;;;5838269;28;20480;-74
2023/11/25 00:52:12;;;;;;;3.28;2.90;;;;;;;;;;5838526;28;20050;-74
2023/11/25 00:55:05;;;;;;;6.18;2.60;;;;;;;;;;5839708;28;20050;-74
2023/11/25 00:57:56;;;;;;;5.05;2.33;;;;;;;;;;5838835;28;20053;-74
2023/11/25 01:00:47;;;;;;;6.05;3.22;;;;;;;;;;5838253;28;20073;-73
2023/11/25 01:03:37;;;;;;;12.10;2.33;;;;;;;;;;5827751;28;20045;-74
2023/11/25 01:06:28;;;;;;;5.25;1.67;;;;;;;;;;5839654;28;20050;-73
2023/11/25 01:09:19;;;;;;;2.50;2.05;;;;;;;;;;5839383;28;20054;-74
2023/11/25 01:12:10;;;;;;;3.05;1.83;;;;;;;;;;5839601;28;20522;-74
2023/11/25 01:15:03;;;;;;;2.92;2.45;;;;;;;;;;5838001;28;20060;-74
2023/11/25 01:17:54;;;;;;;3.45;2.33;;;;;;;;;;5838296;28;20088;-74
2023/11/25 01:20:45;;;;;;;3.55;2.25;;;;;;;;;;5837929;28;20587;-73
2023/11/25 01:23:36;;;;;;;1.55;1.42;;;;;;;;;;5839497;28;20042;-73
2023/11/25 01:26:27;;;;;;;9.52;3.70;;;;;;;;;;5837896;28;20092;-73
2023/11/25 01:29:17;;;;;;;4.25;2.10;;;;;;;;;;5821739;28;20072;-73
2023/11/25 01:32:09;;;;;;;3.00;2.45;;;;;;;;;;5838050;28;20053;-73
2023/11/25 01:35:00;;;;;;;2.50;1.92;;;;;;;;;;5838250;28;20046;-73
2023/11/25 01:37:51;;;;;;;2.03;1.13;;;;;;;;;;5838276;28;20129;-73
2023/11/25 01:40:42;;;;;;;5.10;1.95;;;;;;;;;;5839131;28;20045;-74
2023/11/25 01:43:33;;;;;;;5.28;3.47;;;;;;;;;;5839064;28;20053;-74
2023/11/25 01:46:38;;;;;;;3.53;2.20;;;;;;;;;;5839147;28;20054;-74
2023/11/25 01:49:29;;;;;;;4.35;2.88;;;;;;;;;;5838517;28;20042;-74
2023/11/25 01:52:22;;;;;;;2.53;2.17;;;;;;;;;;5842080;28;20061;-74
2023/11/25 01:55:14;;;;;;;1.90;1.67;;;;;;;;;;5843142;28;20054;-73
2023/11/25 01:58:06;;;;;;;1.98;1.83;;;;;;;;;;5842006;28;20104;-74
2023/11/25 02:00:57;;;;;;;9.38;3.20;;;;;;;;;;5842418;28;20045;-72
2023/11/25 02:03:48;;;;;;;5.20;1.70;;;;;;;;;;5841945;28;20058;-73
2023/11/25 02:06:39;;;;;;;3.97;2.10;;;;;;;;;;5825738;28;20112;-74
2023/11/25 02:09:31;;;;;;;2.83;1.98;;;;;;;;;;5842553;28;20046;-74
2023/11/25 02:12:22;;;;;;;2.92;1.95;;;;;;;;;;5842981;28;20077;-73
2023/11/25 02:15:14;;;;;;;2.25;1.63;;;;;;;;;;5825453;28;20045;-73
2023/11/25 02:18:07;;;;;;;4.50;2.60;;;;;;;;;;5841270;28;20065;-73
2023/11/25 02:20:58;;;;;;;4.32;1.67;;;;;;;;;;5843301;28;20104;-73
2023/11/25 02:23:50;;;;;;;5.70;1.98;;;;;;;;;;5841559;28;20048;-73
2023/11/25 02:26:40;;;;;;;4.88;2.35;;;;;;;;;;5842457;28;20046;-74
2023/11/25 02:29:32;;;;;;;1.80;1.42;;;;;;;;;;5841343;28;20128;-73
2023/11/25 02:32:23;;;;;;;7.88;4.05;;;;;;;;;;5841102;28;20713;-74
2023/11/25 02:35:14;;;;;;;5.50;2.25;;;;;;;;;;5825168;28;20073;-74
2023/11/25 02:38:05;;;;;;;4.45;2.42;;;;;;;;;;5842492;28;20085;-74
2023/11/25 02:40:56;;;;;;;5.70;2.65;;;;;;;;;;5841559;28;20408;-73
2023/11/25 02:43:47;;;;;;;1.65;1.55;;;;;;;;;;5841001;28;20072;-73
2023/11/25 02:46:38;;;;;;;2.30;1.95;;;;;;;;;;5842177;28;20053;-73
2023/11/25 02:49:29;;;;;;;6.13;2.58;;;;;;;;;;5841923;28;20494;-73
2023/11/25 02:52:24;;;;;;;6.47;2.85;;;;;;;;;;5840415;28;20053;-72
2023/11/25 02:55:17;;;;;;;3.08;1.50;;;;;;;;;;5841999;28;20089;-73
2023/11/25 02:58:08;;;;;;;3.17;1.98;;;;;;;;;;5841795;28;20050;-73
2023/11/25 03:01:06;;;;;;;1.95;1.67;;;;;;;;;;5842270;28;20050;-73
2023/11/25 03:04:01;;;;;;;10.48;2.42;;;;;;;;;;5825472;28;20049;-73
2023/11/25 03:06:52;;;;;;;1.92;1.83;;;;;;;;;;5840617;28;20483;-73
2023/11/25 03:09:43;;;;;;;4.97;1.67;;;;;;;;;;5840114;28;20054;-73
2023/11/25 03:12:34;;;;;;;2.22;1.63;;;;;;;;;;5841363;28;20042;-72
2023/11/25 03:15:25;;;;;;;3.00;1.90;;;;;;;;;;5823932;28;20046;-73
2023/11/25 03:18:15;;;;;;;3.60;2.50;;;;;;;;;;5841345;28;20060;-73
2023/11/25 03:21:09;;;;;;;6.70;2.65;;;;;;;;;;5841116;28;20050;-73
2023/11/25 03:24:00;;;;;;;2.30;2.10;;;;;;;;;;5840211;28;20415;-73
2023/11/25 03:26:51;;;;;;;5.55;2.53;;;;;;;;;;5839948;28;20042;-73
2023/11/25 03:29:41;;;;;;;3.90;1.85;;;;;;;;;;5840967;28;20064;-73
2023/11/25 03:32:34;;;;;;;6.80;2.25;;;;;;;;;;5840907;28;20046;-73
2023/11/25 03:35:25;;;;;;;3.85;1.27;;;;;;;;;;5823505;28;20041;-73
2023/11/25 03:38:16;;;;;;;3.35;2.08;;;;;;;;;;5839421;28;20057;-73
2023/11/25 03:41:08;;;;;;;2.97;2.20;;;;;;;;;;5839148;28;20054;-73
2023/11/25 03:44:03;;;;;;;2.70;2.00;;;;;;;;;;5823805;28;20054;-73
2023/11/25 03:46:53;;;;;;;5.53;3.00;;;;;;;;;;5840936;28;20038;-73
2023/11/25 03:49:45;;;;;;;4.35;2.58;;;;;;;;;;5840283;28;20107;-73
2023/11/25 03:52:35;;;;;;;4.55;2.80;;;;;;;;;;5840556;28;20163;-73
2023/11/25 03:55:27;;;;;;;6.72;2.70;;;;;;;;;;5838953;28;20057;-73
2023/11/25 03:58:18;;;;;;;4.18;3.17;;;;;;;;;;5839017;28;20053;-73
2023/11/25 04:01:09;;;;;;;3.97;3.50;;;;;;;;;;5839007;28;20045;-73
2023/11/25 04:04:01;;;;;;;3.38;2.65;;;;;;;;;;5823194;28;20388;-73
2023/11/25 04:06:52;;;;;;;3.35;2.85;;;;;;;;;;5839138;28;20050;-73
2023/11/25 04:09:43;;;;;;;10.63;4.32;;;;;;;;;;5838718;28;20046;-73
2023/11/25 04:12:34;;;;;;;9.90;3.70;;;;;;;;;;5838258;28;20049;-73
2023/11/25 04:15:24;;;;;;;2.22;1.85;;;;;;;;;;5839926;28;20156;-73
2023/11/25 04:18:15;;;;;;;3.20;2.25;;;;;;;;;;5838657;28;20049;-73
2023/11/25 04:21:06;;;;;;;4.70;2.80;;;;;;;;;;5838690;28;20503;-74
2023/11/25 04:23:57;;;;;;;5.30;1.77;;;;;;;;;;5838950;28;20125;-73
2023/11/25 04:26:48;;;;;;;2.67;1.95;;;;;;;;;;5838689;28;20042;-73
2023/11/25 04:29:42;;;;;;;2.28;2.03;;;;;;;;;;5838520;28;20042;-73
2023/11/25 04:32:33;;;;;;;2.95;1.60;;;;;;;;;;5838610;28;20495;-73
2023/11/25 04:35:25;;;;;;;6.25;1.77;;;;;;;;;;5838342;28;20049;-73
2023/11/25 04:38:16;;;;;;;3.08;1.70;;;;;;;;;;5838441;28;20416;-73
2023/11/25 04:41:07;;;;;;;3.15;1.33;;;;;;;;;;5839639;28;20050;-73
2023/11/25 04:43:58;;;;;;;1.60;1.40;;;;;;;;;;5840015;28;20044;-72
2023/11/25 04:46:48;;;;;;;0.88;0.88;;;;;;;;;;5838121;28;20181;-72
2023/11/25 04:49:40;;;;;;;3.85;1.48;;;;;;;;;;5837853;28;20045;-73
2023/11/25 04:52:30;;;;;;;1.48;0.95;;;;;;;;;;5838000;28;20065;-73
2023/11/25 04:55:25;;;;;;;1.48;1.02;;;;;;;;;;5837870;28;20050;-72
2023/11/25 04:58:16;;;;;;;0.95;0.77;;;;;;;;;;5837818;28;20038;-72
2023/11/25 05:01:07;;;;;;;1.63;0.70;;;;;;;;;;5821364;28;20212;-72
2023/11/25 05:03:58;;;;;;;0.50;0.50;;;;;;;;;;5822207;28;20313;-72
2023/11/25 05:06:49;;;;;;;0.73;0.57;;;;;;;;;;5839133;28;20129;-72
2023/11/25 05:09:41;;;;;;;3.45;0.85;;;;;;;;;;5837743;28;20050;-73
2023/11/25 05:12:32;;;;;;;2.38;0.93;;;;;;;;;;5837626;28;20567;-73
2023/11/25 05:15:24;;;;;;;0.80;0.80;;;;;;;;;;5837530;28;20137;-73
2023/11/25 05:18:17;;;;;;;0.30;0.30;;;;;;;;;;5838982;28;20052;-73
2023/11/25 05:21:09;;;;;;;0.70;0.70;;;;;;;;;;5837664;28;20415;-73
2023/11/25 05:24:00;;;;;;;0.50;0.50;;;;;;;;;;5838150;28;20056;-73
2023/11/25 05:26:51;;;;;;;0.93;0.55;;;;;;;;;;5843934;28;20046;-73
2023/11/25 05:29:41;;;;;;;1.38;1.27;;;;;;;;;;5842185;28;20042;-73
2023/11/25 05:32:32;;;;;;;0.55;0.55;;;;;;;;;;5843565;28;20137;-73
2023/11/25 05:35:23;;;;;;;0.75;0.75;;;;;;;;;;5842199;28;20085;-73
2023/11/25 05:38:15;;;;;;;1.15;0.70;;;;;;;;;;5825778;28;20045;-73
2023/11/25 05:41:08;;;;;;;0.50;0.50;;;;;;;;;;5841921;28;20041;-73
2023/11/25 05:44:02;;;;;;;0.88;0.70;;;;;;;;;;5826387;28;20052;-73
2023/11/25 05:46:54;;;;;;;1.08;0.90;;;;;;;;;;5842283;28;20061;-73
2023/11/25 05:49:45;;;;;;;0.75;0.73;;;;;;;;;;5841147;28;20049;-73
2023/11/25 05:52:36;;;;;;;1.55;1.27;;;;;;;;;;5841548;28;20037;-72
2023/11/25 05:55:27;;;;;;;0.95;0.95;;;;;;;;;;5841672;28;20042;-73
2023/11/25 05:58:18;;;;;;;0.65;0.65;;;;;;;;;;5841601;28;20070;-73
2023/11/25 06:01:08;;;;;;;1.25;1.15;;;;;;;;;;5824028;28;20050;-73
2023/11/25 06:03:59;;;;;;;0.90;0.88;;;;;;;;;;5841966;28;20049;-73
2023/11/25 06:06:50;;;;;;;1.08;1.00;;;;;;;;;;5823825;28;20128;-73
2023/11/25 06:09:41;;;;;;;0.60;0.60;;;;;;;;;;5839966;28;20515;-72
2023/11/25 06:12:32;;;;;;;0.77;0.77;;;;;;;;;;5841322;28;20124;-73
2023/11/25 06:15:23;;;;;;;1.13;0.80;;;;;;;;;;5823838;28;20128;-73
2023/11/25 06:18:14;;;;;;;0.73;0.73;;;;;;;;;;5839819;28;20053;-73
2023/11/25 06:21:05;;;;;;;0.65;0.63;;;;;;;;;;5823717;28;20156;-73
2023/11/25 06:23:56;;;;;;;0.50;0.50;;;;;;;;;;5840004;28;20116;-73
2023/11/25 06:26:48;;;;;;;0.75;0.68;;;;;;;;;;5841057;28;20045;-73
2023/11/25 06:29:39;;;;;;;0.20;0.20;;;;;;;;;;5841073;28;20073;-73
2023/11/25 06:32:32;;;;;;;1.60;0.90;;;;;;;;;;5839460;28;20052;-73
2023/11/25 06:35:25;;;;;;;0.95;0.85;;;;;;;;;;5823376;28;20129;-74
2023/11/25 06:38:17;;;;;;;1.25;1.13;;;;;;;;;;5840815;28;20408;-73
2023/11/25 06:41:09;;;;;;;1.48;1.15;;;;;;;;;;5840830;28;20133;-74
2023/11/25 06:44:00;;;;;;;0.35;0.35;;;;;;;;;;5839932;28;20437;-73
2023/11/25 06:46:51;;;;;;;1.33;1.23;;;;;;;;;;5839258;28;20052;-74
2023/11/25 06:49:46;;;;;;;1.65;1.27;;;;;;;;;;5800327;28;1132087;-74
2023/11/25 06:52:37;;;;;;;3.42;2.15;;;;;;;;;;5840509;28;20046;-73
2023/11/25 06:55:27;;;;;;;4.65;2.88;;;;;;;;;;5841759;28;20042;-73
2023/11/25 06:58:19;;;;;;;5.88;3.90;;;;;;;;;;5840234;28;20216;-74
2023/11/25 07:01:18;;;;;;;1.23;0.82;;;;;;;;;;5840042;28;20049;-74
2023/11/25 07:04:10;;;;;;;6.32;4.80;;;;;;;;;;5841676;28;20053;-74
2023/11/25 07:07:01;;;;;;;8.95;4.55;;;;;;;;;;5840275;28;20522;-74
2023/11/25 07:09:52;;;;;;;6.70;4.43;;;;;;;;;;5840615;28;20515;-74
2023/11/25 07:12:43;;;;;;;14.70;4.07;;;;;;;;;;5839586;28;20050;-74
2023/11/25 07:15:35;;;;;;;4.78;2.85;;;;;;;;;;5839715;28;20042;-74
2023/11/25 07:18:26;;;;;;;5.32;2.72;;;;;;;;;;5839912;28;20052;-74
2023/11/25 07:21:18;;;;;;;7.82;2.83;;;;;;;;;;5839522;28;20049;-74
2023/11/25 07:24:08;;;;;;;3.38;2.95;;;;;;;;;;5839691;28;20050;-74
2023/11/25 07:27:04;;;;;;;5.10;2.17;;;;;;;;;;5840190;28;20042;-74
2023/11/25 07:30:00;;;;;;;4.85;1.48;;;;;;;;;;5839858;28;20053;-74
2023/11/25 07:32:52;;;;;;;5.22;1.85;;;;;;;;;;5839977;28;20033;-74
2023/11/25 07:35:42;;;;;;;2.17;1.17;;;;;;;;;;5840902;28;20057;-74
2023/11/25 07:38:33;;;;;;;0.70;0.70;;;;;;;;;;5823266;28;20042;-74
2023/11/25 07:41:24;;;;;;;2.42;2.22;;;;;;;;;;5823457;28;20056;-74
2023/11/25 07:44:15;;;;;;;1.92;1.45;;;;;;;;;;5839293;28;20046;-74
2023/11/25 07:47:06;;;;;;;1.85;0.75;;;;;;;;;;5838565;28;20046;-74
2023/11/25 07:49:57;;;;;;;8.55;2.08;;;;;;;;;;5823467;28;20483;-74
2023/11/25 07:52:49;;;;;;;1.92;1.65;;;;;;;;;;5839221;28;20383;-74
2023/11/25 07:55:43;;;;;;;2.28;1.63;;;;;;;;;;5839081;28;20058;-74
2023/11/25 07:58:34;;;;;;;1.27;1.15;;;;;;;;;;5839063;28;20046;-74
2023/11/25 08:01:26;;;;;;;0.70;0.65;;;;;;;;;;5838970;28;20052;-74
2023/11/25 08:04:16;;;;;;;0.80;0.80;;;;;;;;;;5838914;28;20054;-74
2023/11/25 08:07:07;;;;;;;0.93;0.80;;;;;;;;;;5838802;28;20049;-74
2023/11/25 08:09:58;;;;;;;6.88;2.47;;;;;;;;;;5839316;28;20045;-74
2023/11/25 08:12:49;;;;;;;3.17;2.13;;;;;;;;;;5838764;28;20052;-74
2023/11/25 08:15:40;;;;;;;2.75;1.35;;;;;;;;;;5840029;28;20455;-74
2023/11/25 08:18:31;;;;;;;4.53;1.65;;;;;;;;;;5840028;28;20050;-74
2023/11/25 08:21:23;;;;;;;1.55;1.35;;;;;;;;;;5838527;28;20396;-74
2023/11/25 08:24:17;;;;;;;6.95;2.13;;;;;;;;;;5822518;28;20144;-74
2023/11/25 08:27:08;;;;;;;2.03;1.42;;;;;;;;;;5838877;28;20053;-74
2023/11/25 08:29:59;;;;;;;2.25;1.63;;;;;;;;;;5838877;28;20046;-74
2023/11/25 08:32:50;;;;;;;2.90;1.35;;;;;;;;;;5838689;28;20072;-74
2023/11/25 08:35:41;;;;;;;2.60;1.67;;;;;;;;;;5838542;28;20090;-74
2023/11/25 08:38:32;;;;;;;1.38;1.27;;;;;;;;;;5838234;28;20408;-74
2023/11/25 08:41:23;;;;;;;3.80;1.13;;;;;;;;;;5822004;28;20546;-74
2023/11/25 08:44:15;;;;;;;2.60;1.35;;;;;;;;;;5838138;28;20058;-74
2023/11/25 08:47:06;;;;;;;2.53;1.52;;;;;;;;;;5838209;28;20357;-74
2023/11/25 08:49:57;;;;;;;4.28;1.98;;;;;;;;;;5838491;28;20046;-74
2023/11/25 08:52:48;;;;;;;5.53;1.92;;;;;;;;;;5821886;28;20548;-74
2023/11/25 08:55:40;;;;;;;2.80;2.17;;;;;;;;;;5821929;28;20045;-74
2023/11/25 08:58:31;;;;;;;8.13;2.30;;;;;;;;;;5837601;28;20038;-73
2023/11/25 09:01:24;;;;;;;1.92;1.73;;;;;;;;;;5837859;28;20158;-74
2023/11/25 09:04:25;;;;;;;3.28;2.70;;;;;;;;;;5837966;28;20381;-74
2023/11/25 09:07:17;;;;;;;2.05;1.85;;;;;;;;;;5838038;28;20046;-74
2023/11/25 09:10:10;;;;;;;1.58;1.45;;;;;;;;;;5821761;28;20050;-74
2023/11/25 09:13:02;;;;;;;2.45;1.85;;;;;;;;;;5837740;28;20084;-74
2023/11/25 09:15:53;;;;;;;3.88;1.65;;;;;;;;;;5838135;28;20056;-74
2023/11/25 09:18:44;;;;;;;3.28;1.60;;;;;;;;;;5837649;28;20042;-73
2023/11/25 09:21:35;;;;;;;0.82;0.80;;;;;;;;;;5837471;28;20052;-73
2023/11/25 09:24:26;;;;;;;3.67;1.48;;;;;;;;;;5838908;28;20053;-73
2023/11/25 09:27:16;;;;;;;1.55;1.30;;;;;;;;;;5821372;28;20053;-73
2023/11/25 09:30:12;;;;;;;0.70;0.70;;;;;;;;;;5837462;28;20362;-73
2023/11/25 09:33:03;;;;;;;4.28;2.08;;;;;;;;;;5837774;28;20418;-73
2023/11/25 09:35:54;;;;;;;3.50;2.35;;;;;;;;;;5837916;28;20042;-73
2023/11/25 09:38:45;;;;;;;7.47;1.15;;;;;;;;;;5837467;28;20515;-72
2023/11/25 09:41:37;;;;;;;2.33;1.02;;;;;;;;;;5821095;28;20052;-72
2023/11/25 09:44:30;;;;;;;2.28;1.17;;;;;;;;;;5837627;28;20046;-72
2023/11/25 09:47:23;;;;;;;3.15;1.40;;;;;;;;;;5837489;28;20058;-73
2023/11/25 09:50:13;;;;;;;12.95;1.35;;;;;;;;;;5821406;28;20161;-72
2023/11/25 09:53:22;;;;;;;5.43;3.63;;;;;;;;;;5837460;28;20056;-72
2023/11/25 09:56:16;;;;;;;9.07;3.45;;;;;;;;;;5837640;28;20480;-73
2023/11/25 09:59:07;;;;;;;1.60;1.27;;;;;;;;;;5837199;28;20042;-73
2023/11/25 10:01:59;;;;;;;4.57;2.45;;;;;;;;;;5837931;28;20053;-72
2023/11/25 10:04:53;;;;;;;6.35;2.22;;;;;;;;;;5837396;28;20132;-72
2023/11/25 10:07:45;;;;;;;2.70;2.28;;;;;;;;;;5821290;28;20042;-72
2023/11/25 10:10:36;;;;;;;17.05;5.53;;;;;;;;;;5839574;28;20064;-72
2023/11/25 10:13:32;;;;;;;4.47;3.22;;;;;;;;;;5841562;28;20058;-72
2023/11/25 10:16:28;;;;;;;3.88;1.92;;;;;;;;;;5841129;28;20121;-72
2023/11/25 10:19:20;;;;;;;1.20;1.10;;;;;;;;;;5841191;28;20384;-73
2023/11/25 10:22:11;;;;;;;2.97;1.48;;;;;;;;;;5841305;28;20606;-72
2023/11/25 10:25:02;;;;;;;4.38;1.52;;;;;;;;;;5841057;28;20071;-73
2023/11/25 10:27:54;;;;;;;1.20;1.10;;;;;;;;;;5841912;28;20072;-72
2023/11/25 10:31:04;;;;;;;3.50;1.52;;;;;;;;;;5825134;28;20052;-72
2023/11/25 10:33:55;;;;;;;3.10;1.67;;;;;;;;;;5842463;28;20476;-72
2023/11/25 10:36:49;;;;;;;9.18;2.72;;;;;;;;;;5841051;28;20169;-72
2023/11/25 10:39:40;;;;;;;5.00;1.55;;;;;;;;;;5840787;28;20120;-72
2023/11/25 10:42:32;;;;;;;0.90;0.60;;;;;;;;;;5840835;28;20041;-72
2023/11/25 10:45:27;;;;;;;1.38;1.10;;;;;;;;;;5840690;28;20079;-72
2023/11/25 10:48:19;;;;;;;1.38;1.10;;;;;;;;;;5840665;28;20147;-73
2023/11/25 10:51:10;;;;;;;6.20;1.63;;;;;;;;;;5840539;28;20056;-71
2023/11/25 10:54:03;;;;;;;2.08;1.75;;;;;;;;;;5824355;28;20458;-73
2023/11/25 10:56:55;;;;;;;3.55;1.02;;;;;;;;;;5841075;28;20521;-73
2023/11/25 10:59:46;;;;;;;0.47;0.47;;;;;;;;;;5840425;28;20530;-72
2023/11/25 11:02:54;;;;;;;1.77;1.35;;;;;;;;;;5841614;28;20052;-73
2023/11/25 11:06:01;;;;;;;3.67;2.70;;;;;;;;;;5824671;28;20121;-72
2023/11/25 11:08:53;;;;;;;7.13;4.40;;;;;;;;;;5840775;28;20038;-72
2023/11/25 11:11:53;;;;;;;3.40;1.63;;;;;;;;;;5840161;28;20049;-76
2023/11/25 11:15:07;;;;;;;3.53;2.05;;;;;;;;;;5824411;28;20046;-73
2023/11/25 11:18:24;;;;;;;2.05;1.13;;;;;;;;;;5840283;28;20384;-72
2023/11/25 11:21:16;;;;;;;1.98;0.98;;;;;;;;;;5825527;28;20168;-72
2023/11/25 11:24:08;;;;;;;1.05;1.05;;;;;;;;;;5838908;28;20095;-73
2023/11/25 11:27:12;;;;;;;5.10;2.25;;;;;;;;;;5840467;28;20050;-73
2023/11/25 11:30:20;;;;;;;3.67;2.08;;;;;;;;;;5839444;28;20065;-73
2023/11/25 11:33:14;;;;;;;0.80;0.80;;;;;;;;;;5839897;28;20048;-72
2023/11/25 11:36:06;;;;;;;1.17;1.02;;;;;;;;;;5823967;28;20041;-72
2023/11/25 11:38:57;;;;;;;1.40;1.33;;;;;;;;;;5841368;28;20493;-72
2023/11/25 11:41:48;;;;;;;5.75;1.63;;;;;;;;;;5823377;28;20046;-72
2023/11/25 11:44:39;;;;;;;1.02;0.60;;;;;;;;;;5839528;28;20478;-72
2023/11/25 11:47:32;;;;;;;4.57;0.98;;;;;;;;;;5839499;28;20046;-71
2023/11/25 11:50:33;;;;;;;1.98;1.73;;;;;;;;;;5839083;28;20180;-72
2023/11/25 11:53:25;;;;;;;3.63;1.63;;;;;;;;;;5823239;28;20046;-72
2023/11/25 11:56:17;;;;;;;1.38;1.27;;;;;;;;;;5839015;28;20050;-71
2023/11/25 11:59:08;;;;;;;1.80;1.30;;;;;;;;;;5839001;28;20053;-72
2023/11/25 12:01:59;;;;;;;2.95;1.33;;;;;;;;;;5839693;28;20462;-71
2023/11/25 12:04:49;;;;;;;4.40;1.10;;;;;;;;;;5839128;28;20404;-71
2023/11/25 12:07:40;;;;;;;4.40;1.17;;;;;;;;;;5838989;28;20104;-71
2023/11/25 12:10:32;;;;;;;1.42;0.85;;;;;;;;;;5838717;28;20038;-72
2023/11/25 12:13:27;;;;;;;1.77;1.27;;;;;;;;;;5838862;28;20522;-71
2023/11/25 12:16:19;;;;;;;3.20;1.67;;;;;;;;;;5840110;28;20054;-71
2023/11/25 12:19:10;;;;;;;1.83;1.67;;;;;;;;;;5839963;28;20042;-71
2023/11/25 12:22:01;;;;;;;0.60;0.60;;;;;;;;;;5839148;28;20504;-71
2023/11/25 12:24:52;;;;;;;3.08;2.30;;;;;;;;;;5855182;28;20495;-71
2023/11/25 12:27:53;;;;;;;1.65;1.40;;;;;;;;;;5838660;28;20046;-71
2023/11/25 12:30:44;;;;;;;1.15;1.05;;;;;;;;;;5838754;28;20116;-71
2023/11/25 12:33:35;;;;;;;1.15;1.10;;;;;;;;;;5838236;28;20038;-71
2023/11/25 12:36:26;;;;;;;5.25;2.33;;;;;;;;;;5838532;28;20038;-71
2023/11/25 12:39:16;;;;;;;5.30;1.98;;;;;;;;;;5838295;28;20403;-71
2023/11/25 12:42:08;;;;;;;2.13;1.67;;;;;;;;;;5839698;28;20448;-71
2023/11/25 12:45:01;;;;;;;2.45;1.63;;;;;;;;;;5838744;28;20057;-71
2023/11/25 12:47:51;;;;;;;2.53;0.95;;;;;;;;;;5838546;28;20056;-71
2023/11/25 12:51:06;;;;;;;1.05;1.05;;;;;;;;;;5821861;28;20048;-71
2023/11/25 12:53:57;;;;;;;3.40;1.75;;;;;;;;;;5839625;28;20042;-71
2023/11/25 12:56:53;;;;;;;1.52;1.38;;;;;;;;;;5838222;28;20057;-71
2023/11/25 12:59:45;;;;;;;3.92;2.33;;;;;;;;;;5839341;28;20049;-72
2023/11/25 13:02:45;;;;;;;4.72;2.58;;;;;;;;;;5838123;28;20045;-71
2023/11/25 13:05:36;;;;;;;3.20;2.15;;;;;;;;;;5837971;28;20127;-72
2023/11/25 13:08:31;;;;;;;6.20;1.38;;;;;;;;;;5837963;28;20061;-71
2023/11/25 13:11:22;;;;;;;1.65;1.10;;;;;;;;;;5837915;28;20072;-72
2023/11/25 13:14:13;;;;;;;1.20;1.10;;;;;;;;;;5837933;28;20423;-72
2023/11/25 13:17:05;;;;;;;1.48;1.20;;;;;;;;;;5838070;28;20057;-72
2023/11/25 13:19:57;;;;;;;1.80;1.52;;;;;;;;;;5822228;28;20056;-72
2023/11/25 13:22:49;;;;;;;2.58;1.30;;;;;;;;;;5837979;28;20577;-72
2023/11/25 13:25:40;;;;;;;1.92;1.10;;;;;;;;;;5828990;28;20416;-72
2023/11/25 13:28:31;;;;;;;1.80;0.85;;;;;;;;;;5837780;28;20046;-71
2023/11/25 13:31:23;;;;;;;2.72;2.13;;;;;;;;;;5837848;28;20046;-72
2023/11/25 13:34:15;;;;;;;8.65;2.00;;;;;;;;;;5839088;28;20448;-72
2023/11/25 13:37:07;;;;;;;1.33;0.98;;;;;;;;;;5839016;28;20075;-72
2023/11/25 13:39:59;;;;;;;2.00;0.90;;;;;;;;;;5837979;28;20067;-71
2023/11/25 13:42:49;;;;;;;2.28;1.05;;;;;;;;;;5837800;28;20531;-71
2023/11/25 13:45:41;;;;;;;1.17;1.00;;;;;;;;;;5840028;28;20073;-72
2023/11/25 13:48:32;;;;;;;1.48;1.38;;;;;;;;;;5843179;28;20777;-71
2023/11/25 13:51:23;;;;;;;2.05;1.45;;;;;;;;;;5841669;28;20049;-72
2023/11/25 13:54:15;;;;;;;2.63;1.92;;;;;;;;;;5841894;28;20763;-72
2023/11/25 13:57:06;;;;;;;4.43;2.70;;;;;;;;;;5841893;28;20145;-72
2023/11/25 13:59:56;;;;;;;6.05;2.35;;;;;;;;;;5842107;28;20053;-71
2023/11/25 14:02:50;;;;;;;4.97;3.35;;;;;;;;;;5841886;28;20046;-72
2023/11/25 14:05:45;;;;;;;6.78;4.75;;;;;;;;;;5842807;28;20492;-72
2023/11/25 14:08:37;;;;;;;11.43;3.75;;;;;;;;;;5841741;28;20045;-71
2023/11/25 14:11:30;;;;;;;4.32;2.42;;;;;;;;;;5841238;28;20053;-72
2023/11/25 14:14:21;;;;;;;10.40;3.67;;;;;;;;;;5841408;28;20053;-72
2023/11/25 14:17:16;;;;;;;6.93;1.70;;;;;;;;;;5841463;28;20049;-72
2023/11/25 14:20:19;;;;;;;4.05;1.77;;;;;;;;;;5825337;28;20046;-72
2023/11/25 14:23:10;;;;;;;3.85;1.65;;;;;;;;;;5842854;28;20042;-72
2023/11/25 14:26:02;;;;;;;1.83;1.58;;;;;;;;;;5824958;28;20137;-72
2023/11/25 14:28:55;;;;;;;3.88;1.02;;;;;;;;;;5841466;28;20045;-72
2023/11/25 14:31:46;;;;;;;3.65;1.75;;;;;;;;;;5842367;28;20045;-72
2023/11/25 14:34:37;;;;;;;3.70;2.08;;;;;;;;;;5840999;28;20042;-72
2023/11/25 14:37:28;;;;;;;7.78;1.55;;;;;;;;;;5841042;28;20064;-72
2023/11/25 14:40:19;;;;;;;0.80;0.80;;;;;;;;;;5840714;28;20129;-72
2023/11/25 14:43:10;;;;;;;3.50;2.38;;;;;;;;;;5842164;28;20045;-72
2023/11/25 14:46:01;;;;;;;4.80;2.30;;;;;;;;;;5842053;28;20050;-73
2023/11/25 14:48:52;;;;;;;3.80;2.88;;;;;;;;;;5841106;28;20050;-72
2023/11/25 14:51:43;;;;;;;9.57;4.53;;;;;;;;;;5840604;28;20042;-71
2023/11/25 14:54:34;;;;;;;12.32;5.38;;;;;;;;;;5840360;28;20042;-72
2023/11/25 14:57:27;;;;;;;11.20;6.43;;;;;;;;;;5841577;28;20046;-72
2023/11/25 15:00:18;;;;;;;10.63;5.50;;;;;;;;;;5840402;28;20042;-72
2023/11/25 15:03:09;;;;;;;11.25;5.75;;;;;;;;;;5840551;28;20050;-72
2023/11/25 15:06:00;;;;;;;18.40;8.60;;;;;;;;;;5840656;28;20049;-72
2023/11/25 15:08:51;;;;;;;16.25;8.23;;;;;;;;;;5840327;28;20056;-71
2023/11/25 15:11:41;;;;;;;21.52;8.27;;;;;;;;;;5841394;28;20042;-72
2023/11/25 15:14:33;;;;;;;13.15;6.00;;;;;;;;;;5841477;28;20510;-71
2023/11/25 15:17:24;;;;;;;12.65;6.88;;;;;;;;;;5841548;28;20055;-72
2023/11/25 15:20:15;;;;;;;27.00;12.98;;;;;;;;;;5840005;28;20049;-72
2023/11/25 15:23:06;;;;;;;24.35;8.85;;;;;;;;;;5841355;28;20093;-72
2023/11/25 15:25:57;;;;;;;13.55;4.97;;;;;;;;;;5840371;28;20057;-72
2023/11/25 15:28:48;;;;;;;7.32;3.75;;;;;;;;;;5841349;28;20038;-72
2023/11/25 15:31:45;;;;;;;8.07;3.50;;;;;;;;;;5839722;28;20146;-72
2023/11/25 15:34:37;;;;;;;7.82;3.40;;;;;;;;;;5839579;28;20046;-72
2023/11/25 15:37:27;;;;;;;2.63;2.22;;;;;;;;;;5823519;28;20056;-72
2023/11/25 15:40:18;;;;;;;2.53;2.30;;;;;;;;;;5839373;28;20056;-73
2023/11/25 15:43:09;;;;;;;9.32;4.03;;;;;;;;;;5839513;28;20396;-72
2023/11/25 15:46:01;;;;;;;8.65;3.33;;;;;;;;;;5823683;28;20046;-72
2023/11/25 15:48:52;;;;;;;9.88;4.20;;;;;;;;;;5814076;28;20057;-72
2023/11/25 15:51:43;;;;;;;14.23;6.25;;;;;;;;;;5840723;28;20405;-72
2023/11/25 15:54:34;;;;;;;13.10;6.80;;;;;;;;;;5839138;28;20207;-73
2023/11/25 15:57:26;;;;;;;12.65;4.65;;;;;;;;;;5839264;28;20069;-72
2023/11/25 16:00:19;;;;;;;5.63;4.25;;;;;;;;;;5839023;28;20052;-72
2023/11/25 16:03:10;;;;;;;21.35;8.63;;;;;;;;;;5838774;28;20046;-73
2023/11/25 16:06:04;;;;;;;13.20;7.53;;;;;;;;;;5838755;28;20420;-73
2023/11/25 16:08:55;;;;;;;16.63;8.25;;;;;;;;;;5822891;28;20412;-72
2023/11/25 16:11:46;;;;;;;16.73;7.90;;;;;;;;;;5838988;28;20045;-72
2023/11/25 16:14:37;;;;;;;17.38;7.25;;;;;;;;;;5840127;28;20052;-72
2023/11/25 16:17:28;;;;;;;8.38;4.75;;;;;;;;;;5840242;28;20054;-73
2023/11/25 16:20:19;;;;;;;12.73;5.53;;;;;;;;;;5838490;28;20458;-73
2023/11/25 16:23:10;;;;;;;11.50;6.45;;;;;;;;;;5838790;28;20056;-72
2023/11/25 16:26:01;;;;;;;11.77;7.05;;;;;;;;;;5838665;28;20056;-73
2023/11/25 16:28:52;;;;;;;9.13;6.18;;;;;;;;;;5839083;28;20053;-73
2023/11/25 16:31:43;;;;;;;9.25;4.55;;;;;;;;;;5838592;28;20041;-72
2023/11/25 16:34:34;;;;;;;18.88;4.88;;;;;;;;;;5839889;28;20604;-73
2023/11/25 16:37:25;;;;;;;11.15;8.65;;;;;;;;;;5838519;28;20049;-72
2023/11/25 16:40:18;;;;;;;15.35;7.28;;;;;;;;;;5838089;28;20057;-73
2023/11/25 16:43:09;;;;;;;11.95;7.25;;;;;;;;;;5839681;28;20510;-72
2023/11/25 16:46:00;;;;;;;25.00;9.30;;;;;;;;;;5822358;28;20052;-72
2023/11/25 16:48:51;;;;;;;7.43;6.03;;;;;;;;;;5838471;28;20443;-72
2023/11/25 16:51:52;;;;;;;26.80;17.05;;;;;;;;;;5839764;28;20042;-72
2023/11/25 16:54:43;;;;;;;57.20;22.77;;;;;;;;;;5839560;28;20053;-72
2023/11/25 16:57:36;;;;;;;34.42;14.00;;;;;;;;;;5821946;28;20426;-73
2023/11/25 17:00:28;;;;;;;26.48;10.32;;;;;;;;;;5837883;28;20058;-73
2023/11/25 17:03:19;;;;;;;24.02;7.47;;;;;;;;;;5838325;28;20177;-72
2023/11/25 17:06:13;;;;;;;15.05;6.55;;;;;;;;;;5839230;28;20065;-73
2023/11/25 17:09:04;;;;;;;17.67;8.25;;;;;;;;;;5839273;28;20511;-73